sensor_id;sensor_type;location;lat;lon;timestamp;P1;durP1;ratioP1;P2;durP2;ratioP2
11510;SDS011;5812;48.864;9.190;2022-10-16T00:00:39;0.97;;;0.97;;
11510;SDS011;5812;48.864;9.190;2022-10-16T00:03:06;1.20;;;1.20;;
11510;SDS011;5812;48.864;9.190;2022-10-16T00:05:32;1.00;;;1.00;;
11510;SDS011;5812;48.864;9.190;2022-10-16T00:08:02;1.17;;;1.17;;
11510;SDS011;5812;48.864;9.190;2022-10-16T00:10:28;1.10;;;1.10;;
11510;SDS011;5812;48.864;9.190;2022-10-16T00:12:53;1.10;;;1.10;;
11510;SDS011;5812;48.864;9.190;2022-10-16T00:15:19;1.10;;;1.10;;
11510;SDS011;5812;48.864;9.190;2022-10-16T00:17:45;1.30;;;1.30;;
11510;SDS011;5812;48.864;9.190;2022-10-16T00:20:10;1.20;;;1.20;;
11510;SDS011;5812;48.864;9.190;2022-10-16T00:22:36;1.20;;;1.20;;
11510;SDS011;5812;48.864;9.190;2022-10-16T00:25:01;1.20;;;1.20;;
11510;SDS011;5812;48.864;9.190;2022-10-16T00:27:27;1.20;;;1.20;;
11510;SDS011;5812;48.864;9.190;2022-10-16T00:29:53;1.23;;;1.23;;
11510;SDS011;5812;48.864;9.190;2022-10-16T00:32:19;1.13;;;1.13;;
11510;SDS011;5812;48.864;9.190;2022-10-16T00:34:44;1.70;;;1.70;;
11510;SDS011;5812;48.864;9.190;2022-10-16T00:37:10;1.00;;;1.00;;
11510;SDS011;5812;48.864;9.190;2022-10-16T00:39:36;1.17;;;1.17;;
11510;SDS011;5812;48.864;9.190;2022-10-16T00:42:02;1.00;;;1.00;;
11510;SDS011;5812;48.864;9.190;2022-10-16T00:44:42;1.67;;;1.67;;
11510;SDS011;5812;48.864;9.190;2022-10-16T00:47:13;1.30;;;1.30;;
11510;SDS011;5812;48.864;9.190;2022-10-16T00:49:43;1.43;;;1.43;;
11510;SDS011;5812;48.864;9.190;2022-10-16T00:52:09;1.50;;;1.50;;
11510;SDS011;5812;48.864;9.190;2022-10-16T00:54:36;1.27;;;1.27;;
11510;SDS011;5812;48.864;9.190;2022-10-16T00:57:03;1.03;;;1.03;;
11510;SDS011;5812;48.864;9.190;2022-10-16T00:59:32;1.20;;;1.20;;
11510;SDS011;5812;48.864;9.190;2022-10-16T01:02:01;1.30;;;1.30;;
11510;SDS011;5812;48.864;9.190;2022-10-16T01:04:31;2.53;;;2.53;;
11510;SDS011;5812;48.864;9.190;2022-10-16T01:10:12;1.20;;;1.20;;
11510;SDS011;5812;48.864;9.190;2022-10-16T01:15:42;1.30;;;1.30;;
11510;SDS011;5812;48.864;9.190;2022-10-16T01:32:33;1.37;;;1.37;;
11510;SDS011;5812;48.864;9.190;2022-10-16T01:35:14;1.40;;;1.40;;
11510;SDS011;5812;48.864;9.190;2022-10-16T01:37:49;1.37;;;1.37;;
11510;SDS011;5812;48.864;9.190;2022-10-16T01:40:26;1.33;;;1.33;;
11510;SDS011;5812;48.864;9.190;2022-10-16T01:42:58;1.47;;;1.47;;
11510;SDS011;5812;48.864;9.190;2022-10-16T01:45:28;1.00;;;1.00;;
11510;SDS011;5812;48.864;9.190;2022-10-16T01:47:56;1.30;;;1.30;;
11510;SDS011;5812;48.864;9.190;2022-10-16T01:50:25;1.60;;;1.60;;
11510;SDS011;5812;48.864;9.190;2022-10-16T01:52:52;1.10;;;1.10;;
11510;SDS011;5812;48.864;9.190;2022-10-16T01:55:22;1.63;;;1.63;;
11510;SDS011;5812;48.864;9.190;2022-10-16T01:57:53;1.13;;;1.13;;
11510;SDS011;5812;48.864;9.190;2022-10-16T02:00:20;1.17;;;1.17;;
11510;SDS011;5812;48.864;9.190;2022-10-16T02:02:49;1.53;;;1.53;;
11510;SDS011;5812;48.864;9.190;2022-10-16T02:08:14;1.37;;;1.37;;
11510;SDS011;5812;48.864;9.190;2022-10-16T02:10:39;1.43;;;1.43;;
11510;SDS011;5812;48.864;9.190;2022-10-16T02:13:10;1.20;;;1.20;;
11510;SDS011;5812;48.864;9.190;2022-10-16T02:15:43;1.50;;;1.50;;
11510;SDS011;5812;48.864;9.190;2022-10-16T02:18:09;1.20;;;1.20;;
11510;SDS011;5812;48.864;9.190;2022-10-16T02:23:26;1.40;;;1.40;;
11510;SDS011;5812;48.864;9.190;2022-10-16T02:26:00;1.37;;;1.37;;
11510;SDS011;5812;48.864;9.190;2022-10-16T02:28:35;1.50;;;1.50;;
11510;SDS011;5812;48.864;9.190;2022-10-16T02:31:11;1.60;;;1.60;;
11510;SDS011;5812;48.864;9.190;2022-10-16T02:33:40;1.60;;;1.60;;
11510;SDS011;5812;48.864;9.190;2022-10-16T02:36:07;1.37;;;1.37;;
11510;SDS011;5812;48.864;9.190;2022-10-16T02:38:33;1.27;;;1.27;;
11510;SDS011;5812;48.864;9.190;2022-10-16T02:40:59;1.40;;;1.40;;
11510;SDS011;5812;48.864;9.190;2022-10-16T02:43:25;1.00;;;1.00;;
11510;SDS011;5812;48.864;9.190;2022-10-16T02:45:51;1.30;;;1.30;;
11510;SDS011;5812;48.864;9.190;2022-10-16T02:48:17;1.20;;;1.20;;
11510;SDS011;5812;48.864;9.190;2022-10-16T02:50:42;0.90;;;0.90;;
11510;SDS011;5812;48.864;9.190;2022-10-16T02:53:08;1.10;;;1.10;;
11510;SDS011;5812;48.864;9.190;2022-10-16T02:55:33;1.40;;;1.40;;
11510;SDS011;5812;48.864;9.190;2022-10-16T02:57:59;1.10;;;1.10;;
11510;SDS011;5812;48.864;9.190;2022-10-16T03:00:24;0.97;;;0.97;;
11510;SDS011;5812;48.864;9.190;2022-10-16T03:02:50;1.00;;;1.00;;
11510;SDS011;5812;48.864;9.190;2022-10-16T03:05:15;1.57;;;1.57;;
11510;SDS011;5812;48.864;9.190;2022-10-16T03:07:41;1.27;;;1.27;;
11510;SDS011;5812;48.864;9.190;2022-10-16T03:10:07;1.40;;;1.40;;
11510;SDS011;5812;48.864;9.190;2022-10-16T03:12:33;1.20;;;1.20;;
11510;SDS011;5812;48.864;9.190;2022-10-16T03:14:59;1.40;;;1.40;;
11510;SDS011;5812;48.864;9.190;2022-10-16T03:17:24;0.87;;;0.87;;
11510;SDS011;5812;48.864;9.190;2022-10-16T03:19:50;1.20;;;1.20;;
11510;SDS011;5812;48.864;9.190;2022-10-16T03:22:16;1.20;;;1.20;;
11510;SDS011;5812;48.864;9.190;2022-10-16T03:24:41;1.37;;;1.37;;
11510;SDS011;5812;48.864;9.190;2022-10-16T03:27:07;1.47;;;1.47;;
11510;SDS011;5812;48.864;9.190;2022-10-16T03:29:33;1.13;;;1.13;;
11510;SDS011;5812;48.864;9.190;2022-10-16T03:31:59;1.20;;;1.20;;
11510;SDS011;5812;48.864;9.190;2022-10-16T03:34:25;1.23;;;1.23;;
11510;SDS011;5812;48.864;9.190;2022-10-16T03:36:51;1.33;;;1.33;;
11510;SDS011;5812;48.864;9.190;2022-10-16T03:39:17;1.53;;;1.53;;
11510;SDS011;5812;48.864;9.190;2022-10-16T03:41:43;1.00;;;1.00;;
11510;SDS011;5812;48.864;9.190;2022-10-16T03:44:08;1.10;;;1.10;;
11510;SDS011;5812;48.864;9.190;2022-10-16T03:46:34;1.27;;;1.27;;
11510;SDS011;5812;48.864;9.190;2022-10-16T03:48:59;1.17;;;1.17;;
11510;SDS011;5812;48.864;9.190;2022-10-16T03:51:25;1.23;;;1.23;;
11510;SDS011;5812;48.864;9.190;2022-10-16T03:53:51;1.30;;;1.30;;
11510;SDS011;5812;48.864;9.190;2022-10-16T03:56:16;1.23;;;1.23;;
11510;SDS011;5812;48.864;9.190;2022-10-16T03:58:42;1.30;;;1.30;;
11510;SDS011;5812;48.864;9.190;2022-10-16T04:01:07;1.50;;;1.50;;
11510;SDS011;5812;48.864;9.190;2022-10-16T04:03:33;1.50;;;1.50;;
11510;SDS011;5812;48.864;9.190;2022-10-16T04:05:58;1.13;;;1.13;;
11510;SDS011;5812;48.864;9.190;2022-10-16T04:08:24;1.60;;;1.60;;
11510;SDS011;5812;48.864;9.190;2022-10-16T04:10:50;2.40;;;2.40;;
11510;SDS011;5812;48.864;9.190;2022-10-16T04:13:15;1.30;;;1.30;;
11510;SDS011;5812;48.864;9.190;2022-10-16T04:15:41;1.50;;;1.50;;
11510;SDS011;5812;48.864;9.190;2022-10-16T04:18:07;1.10;;;1.10;;
11510;SDS011;5812;48.864;9.190;2022-10-16T04:20:33;1.20;;;1.20;;
11510;SDS011;5812;48.864;9.190;2022-10-16T04:22:59;1.30;;;1.30;;
11510;SDS011;5812;48.864;9.190;2022-10-16T04:25:25;1.17;;;1.17;;
11510;SDS011;5812;48.864;9.190;2022-10-16T04:27:52;1.23;;;1.23;;
11510;SDS011;5812;48.864;9.190;2022-10-16T04:30:18;1.10;;;1.10;;
11510;SDS011;5812;48.864;9.190;2022-10-16T04:32:47;1.20;;;1.20;;
11510;SDS011;5812;48.864;9.190;2022-10-16T04:35:14;1.43;;;1.43;;
11510;SDS011;5812;48.864;9.190;2022-10-16T04:37:39;1.13;;;1.13;;
11510;SDS011;5812;48.864;9.190;2022-10-16T04:40:05;1.40;;;1.40;;
11510;SDS011;5812;48.864;9.190;2022-10-16T04:42:31;1.20;;;1.20;;
11510;SDS011;5812;48.864;9.190;2022-10-16T04:44:57;1.70;;;1.70;;
11510;SDS011;5812;48.864;9.190;2022-10-16T04:47:22;1.40;;;1.40;;
11510;SDS011;5812;48.864;9.190;2022-10-16T04:49:48;1.47;;;1.47;;
11510;SDS011;5812;48.864;9.190;2022-10-16T04:52:13;1.33;;;1.33;;
11510;SDS011;5812;48.864;9.190;2022-10-16T04:54:39;1.07;;;1.07;;
11510;SDS011;5812;48.864;9.190;2022-10-16T04:57:04;1.20;;;1.20;;
11510;SDS011;5812;48.864;9.190;2022-10-16T04:59:30;1.23;;;1.23;;
11510;SDS011;5812;48.864;9.190;2022-10-16T05:01:55;1.67;;;1.67;;
11510;SDS011;5812;48.864;9.190;2022-10-16T05:04:21;1.23;;;1.23;;
11510;SDS011;5812;48.864;9.190;2022-10-16T05:06:47;1.07;;;1.07;;
11510;SDS011;5812;48.864;9.190;2022-10-16T05:09:13;1.27;;;1.27;;
11510;SDS011;5812;48.864;9.190;2022-10-16T05:11:38;1.23;;;1.23;;
11510;SDS011;5812;48.864;9.190;2022-10-16T05:14:04;1.00;;;1.00;;
11510;SDS011;5812;48.864;9.190;2022-10-16T05:16:29;1.20;;;1.20;;
11510;SDS011;5812;48.864;9.190;2022-10-16T05:18:55;1.37;;;1.37;;
11510;SDS011;5812;48.864;9.190;2022-10-16T05:21:21;1.30;;;1.30;;
11510;SDS011;5812;48.864;9.190;2022-10-16T05:23:47;1.20;;;1.20;;
11510;SDS011;5812;48.864;9.190;2022-10-16T05:26:13;1.10;;;1.10;;
11510;SDS011;5812;48.864;9.190;2022-10-16T05:28:38;1.20;;;1.20;;
11510;SDS011;5812;48.864;9.190;2022-10-16T05:31:08;1.63;;;1.63;;
11510;SDS011;5812;48.864;9.190;2022-10-16T05:33:34;1.40;;;1.40;;
11510;SDS011;5812;48.864;9.190;2022-10-16T05:36:03;1.20;;;1.20;;
11510;SDS011;5812;48.864;9.190;2022-10-16T05:38:31;1.13;;;1.13;;
11510;SDS011;5812;48.864;9.190;2022-10-16T05:40:56;1.33;;;1.33;;
11510;SDS011;5812;48.864;9.190;2022-10-16T05:43:22;1.33;;;1.33;;
11510;SDS011;5812;48.864;9.190;2022-10-16T05:46:21;1.20;;;1.20;;
11510;SDS011;5812;48.864;9.190;2022-10-16T05:48:40;1.30;;;1.30;;
11510;SDS011;5812;48.864;9.190;2022-10-16T05:51:06;1.10;;;1.10;;
11510;SDS011;5812;48.864;9.190;2022-10-16T05:53:34;0.97;;;0.97;;
11510;SDS011;5812;48.864;9.190;2022-10-16T05:56:01;0.90;;;0.90;;
11510;SDS011;5812;48.864;9.190;2022-10-16T05:58:34;1.20;;;1.20;;
11510;SDS011;5812;48.864;9.190;2022-10-16T06:01:02;1.43;;;1.43;;
11510;SDS011;5812;48.864;9.190;2022-10-16T06:03:34;1.53;;;1.53;;
11510;SDS011;5812;48.864;9.190;2022-10-16T06:06:07;1.60;;;1.60;;
11510;SDS011;5812;48.864;9.190;2022-10-16T06:08:36;1.30;;;1.30;;
11510;SDS011;5812;48.864;9.190;2022-10-16T06:11:02;1.40;;;1.40;;
11510;SDS011;5812;48.864;9.190;2022-10-16T06:13:33;1.30;;;1.30;;
11510;SDS011;5812;48.864;9.190;2022-10-16T06:15:58;1.17;;;1.17;;
11510;SDS011;5812;48.864;9.190;2022-10-16T06:18:26;1.30;;;1.30;;
11510;SDS011;5812;48.864;9.190;2022-10-16T06:20:53;1.40;;;1.40;;
11510;SDS011;5812;48.864;9.190;2022-10-16T06:23:19;1.30;;;1.30;;
11510;SDS011;5812;48.864;9.190;2022-10-16T06:25:45;1.30;;;1.30;;
11510;SDS011;5812;48.864;9.190;2022-10-16T06:28:10;1.37;;;1.37;;
11510;SDS011;5812;48.864;9.190;2022-10-16T06:30:36;1.10;;;1.10;;
11510;SDS011;5812;48.864;9.190;2022-10-16T06:33:01;1.40;;;1.40;;
11510;SDS011;5812;48.864;9.190;2022-10-16T06:35:27;1.30;;;1.30;;
11510;SDS011;5812;48.864;9.190;2022-10-16T06:37:54;1.40;;;1.40;;
11510;SDS011;5812;48.864;9.190;2022-10-16T06:40:19;1.50;;;1.50;;
11510;SDS011;5812;48.864;9.190;2022-10-16T06:42:45;1.30;;;1.30;;
11510;SDS011;5812;48.864;9.190;2022-10-16T06:45:11;1.33;;;1.33;;
11510;SDS011;5812;48.864;9.190;2022-10-16T06:47:37;1.73;;;1.73;;
11510;SDS011;5812;48.864;9.190;2022-10-16T06:50:03;1.53;;;1.53;;
11510;SDS011;5812;48.864;9.190;2022-10-16T06:52:31;1.73;;;1.73;;
11510;SDS011;5812;48.864;9.190;2022-10-16T06:54:56;1.60;;;1.60;;
11510;SDS011;5812;48.864;9.190;2022-10-16T06:57:22;1.50;;;1.50;;
11510;SDS011;5812;48.864;9.190;2022-10-16T06:59:48;1.57;;;1.57;;
11510;SDS011;5812;48.864;9.190;2022-10-16T07:02:13;1.30;;;1.30;;
11510;SDS011;5812;48.864;9.190;2022-10-16T07:04:39;1.60;;;1.60;;
11510;SDS011;5812;48.864;9.190;2022-10-16T07:07:04;1.47;;;1.47;;
11510;SDS011;5812;48.864;9.190;2022-10-16T07:09:30;1.30;;;1.30;;
11510;SDS011;5812;48.864;9.190;2022-10-16T07:11:55;1.63;;;1.63;;
11510;SDS011;5812;48.864;9.190;2022-10-16T07:14:21;1.30;;;1.30;;
11510;SDS011;5812;48.864;9.190;2022-10-16T07:16:46;1.27;;;1.27;;
11510;SDS011;5812;48.864;9.190;2022-10-16T07:19:13;1.20;;;1.20;;
11510;SDS011;5812;48.864;9.190;2022-10-16T07:21:40;1.27;;;1.27;;
11510;SDS011;5812;48.864;9.190;2022-10-16T07:24:07;1.50;;;1.50;;
11510;SDS011;5812;48.864;9.190;2022-10-16T07:26:36;1.30;;;1.30;;
11510;SDS011;5812;48.864;9.190;2022-10-16T07:29:04;1.20;;;1.20;;
11510;SDS011;5812;48.864;9.190;2022-10-16T07:31:31;1.40;;;1.40;;
11510;SDS011;5812;48.864;9.190;2022-10-16T07:33:57;1.00;;;1.00;;
11510;SDS011;5812;48.864;9.190;2022-10-16T07:36:25;1.40;;;1.40;;
11510;SDS011;5812;48.864;9.190;2022-10-16T07:38:50;1.17;;;1.17;;
11510;SDS011;5812;48.864;9.190;2022-10-16T07:41:17;1.17;;;1.17;;
11510;SDS011;5812;48.864;9.190;2022-10-16T07:43:47;0.93;;;0.93;;
11510;SDS011;5812;48.864;9.190;2022-10-16T07:46:14;1.17;;;1.17;;
11510;SDS011;5812;48.864;9.190;2022-10-16T07:48:41;0.90;;;0.90;;
11510;SDS011;5812;48.864;9.190;2022-10-16T07:51:10;1.60;;;1.60;;
11510;SDS011;5812;48.864;9.190;2022-10-16T07:53:36;1.30;;;1.30;;
11510;SDS011;5812;48.864;9.190;2022-10-16T07:56:03;1.50;;;1.50;;
11510;SDS011;5812;48.864;9.190;2022-10-16T07:58:30;1.30;;;1.30;;
11510;SDS011;5812;48.864;9.190;2022-10-16T08:00:57;1.43;;;1.43;;
11510;SDS011;5812;48.864;9.190;2022-10-16T08:03:23;1.30;;;1.30;;
11510;SDS011;5812;48.864;9.190;2022-10-16T08:05:49;1.50;;;1.50;;
11510;SDS011;5812;48.864;9.190;2022-10-16T08:08:16;1.33;;;1.33;;
11510;SDS011;5812;48.864;9.190;2022-10-16T08:10:42;1.37;;;1.37;;
11510;SDS011;5812;48.864;9.190;2022-10-16T08:13:08;1.47;;;1.47;;
11510;SDS011;5812;48.864;9.190;2022-10-16T08:15:33;1.90;;;1.90;;
11510;SDS011;5812;48.864;9.190;2022-10-16T08:18:00;1.93;;;1.93;;
11510;SDS011;5812;48.864;9.190;2022-10-16T08:20:28;2.47;;;2.47;;
11510;SDS011;5812;48.864;9.190;2022-10-16T08:22:54;1.50;;;1.50;;
11510;SDS011;5812;48.864;9.190;2022-10-16T08:25:21;1.07;;;1.07;;
11510;SDS011;5812;48.864;9.190;2022-10-16T08:27:47;1.20;;;1.20;;
11510;SDS011;5812;48.864;9.190;2022-10-16T08:30:13;1.40;;;1.40;;
11510;SDS011;5812;48.864;9.190;2022-10-16T08:32:40;1.08;;;1.08;;
11510;SDS011;5812;48.864;9.190;2022-10-16T08:35:06;1.33;;;1.33;;
11510;SDS011;5812;48.864;9.190;2022-10-16T08:37:34;1.35;;;1.35;;
11510;SDS011;5812;48.864;9.190;2022-10-16T08:39:59;1.30;;;1.30;;
11510;SDS011;5812;48.864;9.190;2022-10-16T08:45:25;1.02;;;1.02;;
11510;SDS011;5812;48.864;9.190;2022-10-16T08:48:30;1.15;;;1.15;;
11510;SDS011;5812;48.864;9.190;2022-10-16T08:51:02;1.20;;;1.20;;
11510;SDS011;5812;48.864;9.190;2022-10-16T08:53:35;1.08;;;1.08;;
11510;SDS011;5812;48.864;9.190;2022-10-16T08:56:07;1.05;;;1.05;;
11510;SDS011;5812;48.864;9.190;2022-10-16T08:58:33;1.00;;;1.00;;
11510;SDS011;5812;48.864;9.190;2022-10-16T09:01:00;1.00;;;1.00;;
11510;SDS011;5812;48.864;9.190;2022-10-16T09:03:41;0.82;;;0.82;;
11510;SDS011;5812;48.864;9.190;2022-10-16T09:08:57;1.00;;;1.00;;
11510;SDS011;5812;48.864;9.190;2022-10-16T09:17:32;1.10;;;1.10;;
11510;SDS011;5812;48.864;9.190;2022-10-16T09:22:34;0.95;;;0.95;;
11510;SDS011;5812;48.864;9.190;2022-10-16T09:25:00;0.73;;;0.73;;
11510;SDS011;5812;48.864;9.190;2022-10-16T09:27:37;0.90;;;0.90;;
11510;SDS011;5812;48.864;9.190;2022-10-16T09:30:25;1.00;;;1.00;;
11510;SDS011;5812;48.864;9.190;2022-10-16T09:32:51;0.98;;;0.98;;
11510;SDS011;5812;48.864;9.190;2022-10-16T09:35:22;1.05;;;1.05;;
11510;SDS011;5812;48.864;9.190;2022-10-16T09:37:55;1.58;;;1.58;;
11510;SDS011;5812;48.864;9.190;2022-10-16T09:40:39;0.98;;;0.98;;
11510;SDS011;5812;48.864;9.190;2022-10-16T09:45:56;0.88;;;0.88;;
11510;SDS011;5812;48.864;9.190;2022-10-16T09:48:23;0.82;;;0.82;;
11510;SDS011;5812;48.864;9.190;2022-10-16T09:51:01;0.93;;;0.93;;
11510;SDS011;5812;48.864;9.190;2022-10-16T09:53:37;0.82;;;0.82;;
11510;SDS011;5812;48.864;9.190;2022-10-16T09:56:09;1.02;;;1.02;;
11510;SDS011;5812;48.864;9.190;2022-10-16T09:58:41;1.00;;;1.00;;
11510;SDS011;5812;48.864;9.190;2022-10-16T10:01:12;1.10;;;1.10;;
11510;SDS011;5812;48.864;9.190;2022-10-16T10:03:40;0.98;;;0.98;;
11510;SDS011;5812;48.864;9.190;2022-10-16T10:06:18;1.05;;;1.05;;
11510;SDS011;5812;48.864;9.190;2022-10-16T10:08:57;1.10;;;1.10;;
11510;SDS011;5812;48.864;9.190;2022-10-16T10:11:43;0.73;;;0.73;;
11510;SDS011;5812;48.864;9.190;2022-10-16T10:16:46;0.80;;;0.80;;
11510;SDS011;5812;48.864;9.190;2022-10-16T10:19:19;0.98;;;0.98;;
11510;SDS011;5812;48.864;9.190;2022-10-16T10:21:47;1.00;;;1.00;;
11510;SDS011;5812;48.864;9.190;2022-10-16T10:24:14;0.82;;;0.82;;
11510;SDS011;5812;48.864;9.190;2022-10-16T10:29:53;0.80;;;0.80;;
11510;SDS011;5812;48.864;9.190;2022-10-16T10:32:37;0.82;;;0.82;;
11510;SDS011;5812;48.864;9.190;2022-10-16T10:35:28;0.95;;;0.95;;
11510;SDS011;5812;48.864;9.190;2022-10-16T10:46:38;0.90;;;0.90;;
11510;SDS011;5812;48.864;9.190;2022-10-16T10:51:57;1.20;;;1.20;;
11510;SDS011;5812;48.864;9.190;2022-10-16T10:57:09;0.77;;;0.77;;
11510;SDS011;5812;48.864;9.190;2022-10-16T11:02:41;0.90;;;0.90;;
11510;SDS011;5812;48.864;9.190;2022-10-16T11:06:00;1.00;;;1.00;;
11510;SDS011;5812;48.864;9.190;2022-10-16T11:08:18;0.68;;;0.68;;
11510;SDS011;5812;48.864;9.190;2022-10-16T11:10:54;0.70;;;0.70;;
11510;SDS011;5812;48.864;9.190;2022-10-16T11:21:51;0.98;;;0.98;;
11510;SDS011;5812;48.864;9.190;2022-10-16T11:24:31;0.43;;;0.43;;
11510;SDS011;5812;48.864;9.190;2022-10-16T11:27:14;1.00;;;1.00;;
11510;SDS011;5812;48.864;9.190;2022-10-16T11:29:45;0.90;;;0.90;;
11510;SDS011;5812;48.864;9.190;2022-10-16T11:32:19;0.80;;;0.80;;
11510;SDS011;5812;48.864;9.190;2022-10-16T11:34:50;0.50;;;0.50;;
11510;SDS011;5812;48.864;9.190;2022-10-16T11:37:21;0.93;;;0.93;;
11510;SDS011;5812;48.864;9.190;2022-10-16T11:39:52;0.70;;;0.70;;
11510;SDS011;5812;48.864;9.190;2022-10-16T11:42:36;0.63;;;0.63;;
11510;SDS011;5812;48.864;9.190;2022-10-16T11:47:43;0.68;;;0.68;;
11510;SDS011;5812;48.864;9.190;2022-10-16T11:51:00;0.65;;;0.65;;
11510;SDS011;5812;48.864;9.190;2022-10-16T11:53:04;0.57;;;0.57;;
11510;SDS011;5812;48.864;9.190;2022-10-16T11:55:42;0.60;;;0.60;;
11510;SDS011;5812;48.864;9.190;2022-10-16T12:03:19;0.50;;;0.50;;
11510;SDS011;5812;48.864;9.190;2022-10-16T12:08:30;0.90;;;0.90;;
11510;SDS011;5812;48.864;9.190;2022-10-16T12:11:06;0.70;;;0.70;;
11510;SDS011;5812;48.864;9.190;2022-10-16T12:14:02;0.65;;;0.65;;
11510;SDS011;5812;48.864;9.190;2022-10-16T12:16:38;0.60;;;0.60;;
11510;SDS011;5812;48.864;9.190;2022-10-16T12:19:15;0.60;;;0.60;;
11510;SDS011;5812;48.864;9.190;2022-10-16T12:21:42;0.85;;;0.85;;
11510;SDS011;5812;48.864;9.190;2022-10-16T12:24:30;1.05;;;1.05;;
11510;SDS011;5812;48.864;9.190;2022-10-16T12:27:06;0.98;;;0.98;;
11510;SDS011;5812;48.864;9.190;2022-10-16T12:29:54;0.75;;;0.75;;
11510;SDS011;5812;48.864;9.190;2022-10-16T12:32:37;0.60;;;0.60;;
11510;SDS011;5812;48.864;9.190;2022-10-16T12:35:04;0.73;;;0.73;;
11510;SDS011;5812;48.864;9.190;2022-10-16T12:37:33;0.70;;;0.70;;
11510;SDS011;5812;48.864;9.190;2022-10-16T12:40:11;0.70;;;0.70;;
11510;SDS011;5812;48.864;9.190;2022-10-16T12:42:58;0.80;;;0.80;;
11510;SDS011;5812;48.864;9.190;2022-10-16T12:45:31;0.88;;;0.88;;
11510;SDS011;5812;48.864;9.190;2022-10-16T12:48:02;0.60;;;0.60;;
11510;SDS011;5812;48.864;9.190;2022-10-16T12:50:43;0.77;;;0.77;;
11510;SDS011;5812;48.864;9.190;2022-10-16T12:53:25;0.70;;;0.70;;
11510;SDS011;5812;48.864;9.190;2022-10-16T12:56:12;0.73;;;0.73;;
11510;SDS011;5812;48.864;9.190;2022-10-16T13:07:12;0.60;;;0.60;;
11510;SDS011;5812;48.864;9.190;2022-10-16T13:10:09;0.80;;;0.80;;
11510;SDS011;5812;48.864;9.190;2022-10-16T13:13:00;0.70;;;0.70;;
11510;SDS011;5812;48.864;9.190;2022-10-16T13:23:45;0.70;;;0.70;;
11510;SDS011;5812;48.864;9.190;2022-10-16T13:26:48;0.77;;;0.77;;
11510;SDS011;5812;48.864;9.190;2022-10-16T13:29:22;0.70;;;0.70;;
11510;SDS011;5812;48.864;9.190;2022-10-16T13:31:48;0.57;;;0.57;;
11510;SDS011;5812;48.864;9.190;2022-10-16T13:34:15;0.80;;;0.80;;
11510;SDS011;5812;48.864;9.190;2022-10-16T13:36:45;0.70;;;0.70;;
11510;SDS011;5812;48.864;9.190;2022-10-16T13:39:20;1.25;;;1.25;;
11510;SDS011;5812;48.864;9.190;2022-10-16T13:44:43;1.95;;;1.95;;
11510;SDS011;5812;48.864;9.190;2022-10-16T13:47:19;1.23;;;1.23;;
11510;SDS011;5812;48.864;9.190;2022-10-16T13:49:46;1.15;;;1.15;;
11510;SDS011;5812;48.864;9.190;2022-10-16T13:52:23;0.90;;;0.90;;
11510;SDS011;5812;48.864;9.190;2022-10-16T13:54:49;0.80;;;0.80;;
11510;SDS011;5812;48.864;9.190;2022-10-16T13:57:15;0.93;;;0.93;;
11510;SDS011;5812;48.864;9.190;2022-10-16T13:59:41;1.00;;;1.00;;
11510;SDS011;5812;48.864;9.190;2022-10-16T14:02:15;1.45;;;1.45;;
11510;SDS011;5812;48.864;9.190;2022-10-16T14:04:51;1.25;;;1.25;;
11510;SDS011;5812;48.864;9.190;2022-10-16T14:07:24;1.17;;;1.17;;
11510;SDS011;5812;48.864;9.190;2022-10-16T14:09:53;0.90;;;0.90;;
11510;SDS011;5812;48.864;9.190;2022-10-16T14:12:19;1.15;;;1.15;;
11510;SDS011;5812;48.864;9.190;2022-10-16T14:14:47;1.00;;;1.00;;
11510;SDS011;5812;48.864;9.190;2022-10-16T14:17:15;1.05;;;1.05;;
11510;SDS011;5812;48.864;9.190;2022-10-16T14:20:02;0.93;;;0.93;;
11510;SDS011;5812;48.864;9.190;2022-10-16T14:22:34;1.23;;;1.23;;
11510;SDS011;5812;48.864;9.190;2022-10-16T14:25:00;1.10;;;1.10;;
11510;SDS011;5812;48.864;9.190;2022-10-16T14:27:34;1.15;;;1.15;;
11510;SDS011;5812;48.864;9.190;2022-10-16T14:32:36;0.98;;;0.98;;
11510;SDS011;5812;48.864;9.190;2022-10-16T14:35:01;0.90;;;0.90;;
11510;SDS011;5812;48.864;9.190;2022-10-16T14:37:27;1.10;;;1.10;;
11510;SDS011;5812;48.864;9.190;2022-10-16T14:39:54;1.00;;;1.00;;
11510;SDS011;5812;48.864;9.190;2022-10-16T14:42:22;1.00;;;1.00;;
11510;SDS011;5812;48.864;9.190;2022-10-16T14:44:50;1.08;;;1.08;;
11510;SDS011;5812;48.864;9.190;2022-10-16T14:47:21;0.98;;;0.98;;
11510;SDS011;5812;48.864;9.190;2022-10-16T14:49:51;0.90;;;0.90;;
11510;SDS011;5812;48.864;9.190;2022-10-16T14:52:20;1.00;;;1.00;;
11510;SDS011;5812;48.864;9.190;2022-10-16T14:54:47;0.93;;;0.93;;
11510;SDS011;5812;48.864;9.190;2022-10-16T14:57:20;1.20;;;1.20;;
11510;SDS011;5812;48.864;9.190;2022-10-16T14:59:49;1.33;;;1.33;;
11510;SDS011;5812;48.864;9.190;2022-10-16T15:02:32;1.17;;;1.17;;
11510;SDS011;5812;48.864;9.190;2022-10-16T15:05:16;0.98;;;0.98;;
11510;SDS011;5812;48.864;9.190;2022-10-16T15:07:47;1.20;;;1.20;;
11510;SDS011;5812;48.864;9.190;2022-10-16T15:10:14;1.23;;;1.23;;
11510;SDS011;5812;48.864;9.190;2022-10-16T15:12:41;0.80;;;0.80;;
11510;SDS011;5812;48.864;9.190;2022-10-16T15:17:48;1.05;;;1.05;;
11510;SDS011;5812;48.864;9.190;2022-10-16T15:20:17;1.10;;;1.10;;
11510;SDS011;5812;48.864;9.190;2022-10-16T15:22:43;1.25;;;1.25;;
11510;SDS011;5812;48.864;9.190;2022-10-16T15:25:14;1.10;;;1.10;;
11510;SDS011;5812;48.864;9.190;2022-10-16T15:27:56;0.90;;;0.90;;
11510;SDS011;5812;48.864;9.190;2022-10-16T15:30:22;1.15;;;1.15;;
11510;SDS011;5812;48.864;9.190;2022-10-16T15:32:48;1.10;;;1.10;;
11510;SDS011;5812;48.864;9.190;2022-10-16T15:35:13;1.20;;;1.20;;
11510;SDS011;5812;48.864;9.190;2022-10-16T15:37:39;1.05;;;1.05;;
11510;SDS011;5812;48.864;9.190;2022-10-16T15:40:04;1.15;;;1.15;;
11510;SDS011;5812;48.864;9.190;2022-10-16T15:42:30;1.17;;;1.17;;
11510;SDS011;5812;48.864;9.190;2022-10-16T15:44:56;1.20;;;1.20;;
11510;SDS011;5812;48.864;9.190;2022-10-16T15:47:21;1.10;;;1.10;;
11510;SDS011;5812;48.864;9.190;2022-10-16T15:49:47;1.10;;;1.10;;
11510;SDS011;5812;48.864;9.190;2022-10-16T15:52:13;0.90;;;0.90;;
11510;SDS011;5812;48.864;9.190;2022-10-16T15:54:38;1.10;;;1.10;;
11510;SDS011;5812;48.864;9.190;2022-10-16T15:57:04;1.05;;;1.05;;
11510;SDS011;5812;48.864;9.190;2022-10-16T15:59:29;0.90;;;0.90;;
11510;SDS011;5812;48.864;9.190;2022-10-16T16:01:55;1.30;;;1.30;;
11510;SDS011;5812;48.864;9.190;2022-10-16T16:04:20;1.08;;;1.08;;
11510;SDS011;5812;48.864;9.190;2022-10-16T16:06:46;1.15;;;1.15;;
11510;SDS011;5812;48.864;9.190;2022-10-16T16:09:12;1.45;;;1.45;;
11510;SDS011;5812;48.864;9.190;2022-10-16T16:11:38;1.33;;;1.33;;
11510;SDS011;5812;48.864;9.190;2022-10-16T16:14:10;1.33;;;1.33;;
11510;SDS011;5812;48.864;9.190;2022-10-16T16:16:37;0.98;;;0.98;;
11510;SDS011;5812;48.864;9.190;2022-10-16T16:19:06;1.48;;;1.48;;
11510;SDS011;5812;48.864;9.190;2022-10-16T16:21:33;1.45;;;1.45;;
11510;SDS011;5812;48.864;9.190;2022-10-16T16:23:59;1.48;;;1.48;;
11510;SDS011;5812;48.864;9.190;2022-10-16T16:26:25;1.90;;;1.90;;
11510;SDS011;5812;48.864;9.190;2022-10-16T16:28:55;1.58;;;1.58;;
11510;SDS011;5812;48.864;9.190;2022-10-16T16:31:25;1.33;;;1.33;;
11510;SDS011;5812;48.864;9.190;2022-10-16T16:33:52;1.58;;;1.58;;
11510;SDS011;5812;48.864;9.190;2022-10-16T16:36:18;1.45;;;1.45;;
11510;SDS011;5812;48.864;9.190;2022-10-16T16:38:45;1.55;;;1.55;;
11510;SDS011;5812;48.864;9.190;2022-10-16T16:41:11;1.52;;;1.52;;
11510;SDS011;5812;48.864;9.190;2022-10-16T16:43:37;3.42;;;3.42;;
11510;SDS011;5812;48.864;9.190;2022-10-16T16:46:03;2.80;;;2.80;;
11510;SDS011;5812;48.864;9.190;2022-10-16T16:48:28;2.63;;;2.63;;
11510;SDS011;5812;48.864;9.190;2022-10-16T16:50:54;1.75;;;1.75;;
11510;SDS011;5812;48.864;9.190;2022-10-16T16:53:20;1.55;;;1.55;;
11510;SDS011;5812;48.864;9.190;2022-10-16T16:55:47;1.60;;;1.60;;
11510;SDS011;5812;48.864;9.190;2022-10-16T16:58:13;1.80;;;1.80;;
11510;SDS011;5812;48.864;9.190;2022-10-16T17:00:44;1.75;;;1.75;;
11510;SDS011;5812;48.864;9.190;2022-10-16T17:03:10;2.00;;;2.00;;